TimePST,TemperatureF,Dew PointF,Humidity,Sea Level PressureIn,VisibilityMPH,Wind Direction,Wind SpeedMPH,Gust SpeedMPH,PrecipitationIn,Events,Conditions,WindDirDegrees,DateUTC
12:56 AM,-9.9,-15.0,78,30.69,9.0,ENE,8.1,-,N/A,,Clear,70,2013-01-03 08:56:00
1:56 AM,-11.9,-16.1,82,30.69,10.0,ENE,8.1,-,N/A,,Clear,70,2013-01-03 09:56:00
2:15 AM,-11.2,-14.8,84,30.37,2.5,Calm,Calm,-,N/A,,Scattered Clouds,0,2013-01-03 10:15:00
2:30 AM,-11.2,-16.6,77,30.36,9.0,Calm,Calm,-,N/A,,Partly Cloudy,0,2013-01-03 10:30:00
2:56 AM,-11.9,-17.0,78,30.69,9.0,East,6.9,-,N/A,,Partly Cloudy,80,2013-01-03 10:56:00
3:56 AM,-14.1,-18.0,82,30.68,10.0,ENE,6.9,-,N/A,,Clear,70,2013-01-03 11:56:00
5:29 AM,-14.8,-18.4,84,30.35,6.0,ENE,6.9,-,N/A,,Partly Cloudy,70,2013-01-03 13:29:00
5:56 AM,-15.0,-18.9,82,30.74,10.0,NE,4.6,-,N/A,,Clear,40,2013-01-03 13:56:00
6:22 AM,-14.8,-20.2,77,30.35,5.0,East,5.8,-,N/A,,Haze,90,2013-01-03 14:22:00
6:56 AM,-16.1,-20.0,82,30.74,7.0,ENE,9.2,-,N/A,,Clear,70,2013-01-03 14:56:00
7:56 AM,-16.1,-18.9,87,30.78,6.0,East,6.9,-,N/A,,Clear,90,2013-01-03 15:56:00
8:38 AM,-13.0,-16.6,84,30.38,2.0,Calm,Calm,-,N/A,,Partly Cloudy,0,2013-01-03 16:38:00
8:41 AM,-13.0,-16.6,84,30.38,1.0,ENE,3.5,-,N/A,,Mist,60,2013-01-03 16:41:00
8:50 AM,-11.2,-16.6,77,30.38,2.0,ENE,3.5,-,N/A,,Mostly Cloudy,70,2013-01-03 16:50:00
8:52 AM,-11.2,-16.6,77,30.39,3.0,East,3.5,-,N/A,,Scattered Clouds,80,2013-01-03 16:52:00
8:56 AM,-11.9,-15.0,86,30.78,5.0,East,4.6,-,N/A,,Scattered Clouds,90,2013-01-03 16:56:00
9:56 AM,-9.0,-11.9,87,30.78,5.0,East,4.6,-,N/A,,Partly Cloudy,80,2013-01-03 17:56:00
10:56 AM,-6.0,-9.9,83,30.76,10.0,East,6.9,-,N/A,,Clear,100,2013-01-03 18:56:00
11:56 AM,-0.9,-6.0,79,30.71,10.0,East,3.5,-,N/A,,Clear,100,2013-01-03 19:56:00
12:56 PM,5.0,-4.0,66,30.66,10.0,NE,5.8,-,N/A,,Clear,40,2013-01-03 20:56:00
1:56 PM,5.0,-2.9,70,30.66,10.0,East,6.9,-,N/A,,Clear,80,2013-01-03 21:56:00
2:56 PM,7.0,-0.9,70,30.67,10.0,East,4.6,-,N/A,,Clear,90,2013-01-03 22:56:00
3:56 PM,5.0,-2.9,70,30.69,10.0,ENE,6.9,-,N/A,,Clear,70,2013-01-03 23:56:00
4:56 PM,1.0,-5.1,75,30.71,10.0,East,6.9,-,N/A,,Clear,90,2013-01-04 00:56:00
5:56 PM,1.0,-5.1,75,30.70,10.0,NE,5.8,-,N/A,,Clear,40,2013-01-04 01:56:00
6:56 PM,-7.1,-11.0,83,30.76,10.0,Calm,Calm,-,N/A,,Clear,0,2013-01-04 02:56:00
7:54 PM,-5.8,-9.4,84,30.36,1.8,ENE,3.5,-,N/A,,Clear,60,2013-01-04 03:54:00
7:56 PM,-5.1,-9.0,83,30.76,1.8,ENE,3.5,-,N/A,,Clear,60,2013-01-04 03:56:00
8:01 PM,-4.0,-7.6,85,30.35,3.0,ENE,4.6,-,N/A,,Clear,60,2013-01-04 04:01:00
8:54 PM,-5.8,-9.4,84,30.36,6.0,East,3.5,-,N/A,,Partly Cloudy,80,2013-01-04 04:54:00
8:56 PM,-5.1,-9.0,83,30.75,5.0,East,4.6,-,N/A,,Partly Cloudy,80,2013-01-04 04:56:00
9:56 PM,-8.0,-11.0,86,30.76,5.0,Calm,Calm,-,N/A,,Clear,0,2013-01-04 05:56:00
10:56 PM,-8.0,-11.9,83,30.74,7.0,East,4.6,-,N/A,,Partly Cloudy,90,2013-01-04 06:56:00
11:56 PM,-9.0,-14.1,79,30.72,10.0,East,5.8,-,N/A,,Clear,80,2013-01-04 07:56:00